Main page
METAR-TAF:

METAR-TAF

Airports :

Hagåtña, Guam, United States

Antonio B. Won Pat International Airport

latitude: 13-29N, longitude: 144-48E, elevation: 91 m

Current weather observation

The report was made 1 hour and 5 minutes ago, at 01:04 UTC
Wind 15 kt from the East with gusts up to 23 kt
Temperature 32°C
Humidity 75%
Pressure 1013 hPa
Visibility: 16.1 km
Scattered clouds at a height of 1900 ft

METAR: PGUM 230104Z 09015G23KT 10SM SCT019 32/27 A2990 RMK AO2 T03170267

Time: 12:09 (02:09 UTC)

Forecast

The report was made 2 hours and 45 minutes ago, at 23:24 UTC
Forecast valid from 23 at 00 UTC to 24 at 06 UTC
Wind 12 kt from the East
Visibility: 10 km
Scattered clouds at a height of 2000 ft
Scattered clouds at a height of 5000 ft
showers in vicinity

TAF: PGUM 222324Z 2300/2406 09012KT P6SM VCSH SCT020 SCT050

Weather observations and forecasts of more than 4000 airports (METAR and TAF reports).

The available stations are represented by yellow and red dots on the map.

Hover mouse over dot to see the name of the station.

Then click to see weather observations and forecasts.

To change the map : click on the green buttons with a black cross to zoom in, on the green button with a dash to zoom out, or on the green arrows for adjacent maps.


METAR-TAF: